sensor_id;sensor_type;location;lat;lon;timestamp;pressure;altitude;pressure_sealevel;temperature;humidity
14689;BME280;7432;48.728;9.154;2022-10-30T00:01:00;97019.47;;;14.84;82.97
14689;BME280;7432;48.728;9.154;2022-10-30T00:03:27;97018.50;;;14.85;83.49
14689;BME280;7432;48.728;9.154;2022-10-30T00:05:54;97013.47;;;14.83;84.34
14689;BME280;7432;48.728;9.154;2022-10-30T00:08:22;97006.22;;;14.79;85.70
14689;BME280;7432;48.728;9.154;2022-10-30T00:10:51;97005.59;;;14.77;85.73
14689;BME280;7432;48.728;9.154;2022-10-30T00:13:18;97014.84;;;14.71;86.53
14689;BME280;7432;48.728;9.154;2022-10-30T00:15:49;97004.84;;;14.68;87.19
14689;BME280;7432;48.728;9.154;2022-10-30T00:18:16;96987.28;;;14.56;86.68
14689;BME280;7432;48.728;9.154;2022-10-30T00:20:42;97005.69;;;14.61;87.10
14689;BME280;7432;48.728;9.154;2022-10-30T00:23:10;96994.38;;;14.54;88.06
14689;BME280;7432;48.728;9.154;2022-10-30T00:25:36;96992.81;;;14.53;87.98
14689;BME280;7432;48.728;9.154;2022-10-30T00:28:03;96995.38;;;14.53;87.89
14689;BME280;7432;48.728;9.154;2022-10-30T00:30:30;96989.41;;;14.52;86.79
14689;BME280;7432;48.728;9.154;2022-10-30T00:32:56;96987.63;;;14.53;86.29
14689;BME280;7432;48.728;9.154;2022-10-30T00:35:23;96991.03;;;14.53;85.63
14689;BME280;7432;48.728;9.154;2022-10-30T00:37:49;96983.53;;;14.58;84.92
14689;BME280;7432;48.728;9.154;2022-10-30T00:40:17;96989.97;;;14.62;84.93
14689;BME280;7432;48.728;9.154;2022-10-30T00:42:44;96989.81;;;14.64;83.96
14689;BME280;7432;48.728;9.154;2022-10-30T00:45:12;96999.66;;;14.68;83.58
14689;BME280;7432;48.728;9.154;2022-10-30T00:47:41;96989.91;;;14.70;82.40
14689;BME280;7432;48.728;9.154;2022-10-30T00:50:11;96992.00;;;14.75;81.88
14689;BME280;7432;48.728;9.154;2022-10-30T00:52:41;96985.47;;;14.79;81.95
14689;BME280;7432;48.728;9.154;2022-10-30T00:55:13;96982.88;;;14.79;82.22
14689;BME280;7432;48.728;9.154;2022-10-30T00:57:43;96983.06;;;14.77;82.93
14689;BME280;7432;48.728;9.154;2022-10-30T01:00:10;96985.66;;;14.77;83.61
14689;BME280;7432;48.728;9.154;2022-10-30T01:02:38;96984.03;;;14.76;84.07
14689;BME280;7432;48.728;9.154;2022-10-30T01:05:06;96982.41;;;14.75;84.71
14689;BME280;7432;48.728;9.154;2022-10-30T01:07:32;96973.38;;;14.71;84.70
14689;BME280;7432;48.728;9.154;2022-10-30T01:09:59;96975.50;;;14.68;85.15
14689;BME280;7432;48.728;9.154;2022-10-30T01:12:25;96974.69;;;14.67;85.13
14689;BME280;7432;48.728;9.154;2022-10-30T01:14:56;96974.88;;;14.66;85.53
14689;BME280;7432;48.728;9.154;2022-10-30T01:17:56;96969.22;;;14.62;85.63
14689;BME280;7432;48.728;9.154;2022-10-30T01:20:53;96969.56;;;14.59;85.87
14689;BME280;7432;48.728;9.154;2022-10-30T01:23:36;96974.13;;;14.57;86.12
14689;BME280;7432;48.728;9.154;2022-10-30T01:26:12;96966.69;;;14.54;86.37
14689;BME280;7432;48.728;9.154;2022-10-30T01:28:52;96970.28;;;14.53;86.46
14689;BME280;7432;48.728;9.154;2022-10-30T01:31:33;96961.41;;;14.48;86.66
14689;BME280;7432;48.728;9.154;2022-10-30T01:34:14;96971.13;;;14.46;86.74
14689;BME280;7432;48.728;9.154;2022-10-30T01:36:45;96964.50;;;14.43;86.94
14689;BME280;7432;48.728;9.154;2022-10-30T01:39:17;96968.25;;;14.41;87.00
14689;BME280;7432;48.728;9.154;2022-10-30T01:41:45;96968.59;;;14.38;86.75
14689;BME280;7432;48.728;9.154;2022-10-30T01:44:13;96966.19;;;14.36;86.86
14689;BME280;7432;48.728;9.154;2022-10-30T01:46:50;96971.50;;;14.35;86.86
14689;BME280;7432;48.728;9.154;2022-10-30T01:52:34;96958.59;;;14.26;87.48
14689;BME280;7432;48.728;9.154;2022-10-30T01:55:08;96955.38;;;14.24;87.26
14689;BME280;7432;48.728;9.154;2022-10-30T01:57:42;96957.31;;;14.22;87.22
14689;BME280;7432;48.728;9.154;2022-10-30T02:00:15;96953.28;;;14.20;87.05
14689;BME280;7432;48.728;9.154;2022-10-30T02:02:47;96951.19;;;14.15;86.88
14689;BME280;7432;48.728;9.154;2022-10-30T02:05:20;96948.78;;;14.14;86.77
14689;BME280;7432;48.728;9.154;2022-10-30T02:07:51;96942.00;;;14.13;87.04
14689;BME280;7432;48.728;9.154;2022-10-30T02:10:17;96940.41;;;14.12;87.08
14689;BME280;7432;48.728;9.154;2022-10-30T02:12:44;96942.00;;;14.13;87.03
14689;BME280;7432;48.728;9.154;2022-10-30T02:15:11;96941.22;;;14.12;87.65
14689;BME280;7432;48.728;9.154;2022-10-30T02:17:38;96937.63;;;14.13;87.94
14689;BME280;7432;48.728;9.154;2022-10-30T02:20:13;96937.09;;;14.18;87.85
14689;BME280;7432;48.728;9.154;2022-10-30T02:22:39;96935.66;;;14.15;88.13
14689;BME280;7432;48.728;9.154;2022-10-30T02:25:06;96932.44;;;14.13;89.30
14689;BME280;7432;48.728;9.154;2022-10-30T02:27:33;96928.59;;;14.09;90.47
14689;BME280;7432;48.728;9.154;2022-10-30T02:29:59;96927.78;;;14.09;89.90
14689;BME280;7432;48.728;9.154;2022-10-30T02:32:26;96931.00;;;14.11;90.15
14689;BME280;7432;48.728;9.154;2022-10-30T02:34:52;96934.75;;;14.08;90.87
14689;BME280;7432;48.728;9.154;2022-10-30T02:37:20;96923.09;;;14.04;90.93
14689;BME280;7432;48.728;9.154;2022-10-30T02:39:48;96926.69;;;14.03;91.32
14689;BME280;7432;48.728;9.154;2022-10-30T02:42:15;96932.81;;;14.02;91.77
14689;BME280;7432;48.728;9.154;2022-10-30T02:44:41;96928.66;;;14.01;91.21
14689;BME280;7432;48.728;9.154;2022-10-30T02:47:08;96932.38;;;13.99;91.32
14689;BME280;7432;48.728;9.154;2022-10-30T02:49:34;96928.97;;;13.98;91.92
14689;BME280;7432;48.728;9.154;2022-10-30T02:52:01;96928.50;;;13.95;91.51
14689;BME280;7432;48.728;9.154;2022-10-30T02:54:29;96929.19;;;13.89;91.53
14689;BME280;7432;48.728;9.154;2022-10-30T02:56:55;96933.53;;;13.88;91.56
14689;BME280;7432;48.728;9.154;2022-10-30T02:59:21;96936.47;;;13.85;92.07
14689;BME280;7432;48.728;9.154;2022-10-30T03:01:48;96935.84;;;13.83;92.16
14689;BME280;7432;48.728;9.154;2022-10-30T03:04:14;96941.53;;;13.79;92.51
14689;BME280;7432;48.728;9.154;2022-10-30T03:06:41;96939.59;;;13.73;92.71
14689;BME280;7432;48.728;9.154;2022-10-30T03:09:07;96936.72;;;13.68;92.63
14689;BME280;7432;48.728;9.154;2022-10-30T03:11:35;96933.66;;;13.64;92.88
14689;BME280;7432;48.728;9.154;2022-10-30T03:14:01;96937.38;;;13.61;93.35
14689;BME280;7432;48.728;9.154;2022-10-30T03:16:28;96932.41;;;13.60;93.63
14689;BME280;7432;48.728;9.154;2022-10-30T03:18:55;96929.16;;;13.58;93.44
14689;BME280;7432;48.728;9.154;2022-10-30T03:21:24;96938.06;;;13.55;94.10
14689;BME280;7432;48.728;9.154;2022-10-30T03:23:51;96918.06;;;13.41;94.45
14689;BME280;7432;48.728;9.154;2022-10-30T03:26:19;96929.69;;;13.45;94.12
14689;BME280;7432;48.728;9.154;2022-10-30T03:28:47;96933.75;;;13.40;94.41
14689;BME280;7432;48.728;9.154;2022-10-30T03:31:15;96934.88;;;13.37;95.09
14689;BME280;7432;48.728;9.154;2022-10-30T03:33:42;96940.25;;;13.36;94.80
14689;BME280;7432;48.728;9.154;2022-10-30T03:36:10;96938.31;;;13.30;94.75
14689;BME280;7432;48.728;9.154;2022-10-30T03:38:37;96941.56;;;13.24;95.08
14689;BME280;7432;48.728;9.154;2022-10-30T03:41:04;96942.84;;;13.20;95.75
14689;BME280;7432;48.728;9.154;2022-10-30T03:43:31;96950.97;;;13.17;96.48
14689;BME280;7432;48.728;9.154;2022-10-30T03:45:59;96947.56;;;13.16;95.91
14689;BME280;7432;48.728;9.154;2022-10-30T03:48:27;96953.69;;;13.15;96.95
14689;BME280;7432;48.728;9.154;2022-10-30T03:50:54;96955.78;;;13.12;97.11
14689;BME280;7432;48.728;9.154;2022-10-30T03:53:21;96949.84;;;13.11;96.58
14689;BME280;7432;48.728;9.154;2022-10-30T03:55:48;96955.00;;;13.03;97.31
14689;BME280;7432;48.728;9.154;2022-10-30T03:58:14;96952.06;;;12.90;97.67
14689;BME280;7432;48.728;9.154;2022-10-30T04:00:41;96956.28;;;12.91;97.16
14689;BME280;7432;48.728;9.154;2022-10-30T04:03:09;96940.59;;;12.76;97.64
14689;BME280;7432;48.728;9.154;2022-10-30T04:05:36;96955.97;;;12.78;97.98
14689;BME280;7432;48.728;9.154;2022-10-30T04:08:05;96947.22;;;12.71;98.02
14689;BME280;7432;48.728;9.154;2022-10-30T04:10:32;96944.19;;;12.75;98.15
14689;BME280;7432;48.728;9.154;2022-10-30T04:12:59;96948.84;;;12.72;98.19
14689;BME280;7432;48.728;9.154;2022-10-30T04:15:26;96945.78;;;12.76;97.90
14689;BME280;7432;48.728;9.154;2022-10-30T04:17:53;96947.22;;;12.71;97.94
14689;BME280;7432;48.728;9.154;2022-10-30T04:20:21;96957.09;;;12.67;98.13
14689;BME280;7432;48.728;9.154;2022-10-30T04:22:48;96949.19;;;12.69;98.03
14689;BME280;7432;48.728;9.154;2022-10-30T04:25:14;96948.53;;;12.67;98.15
14689;BME280;7432;48.728;9.154;2022-10-30T04:27:41;96956.94;;;12.61;98.38
14689;BME280;7432;48.728;9.154;2022-10-30T04:30:10;96954.84;;;12.56;98.90
14689;BME280;7432;48.728;9.154;2022-10-30T04:32:44;96954.03;;;12.56;99.34
14689;BME280;7432;48.728;9.154;2022-10-30T04:35:11;96955.31;;;12.52;99.39
14689;BME280;7432;48.728;9.154;2022-10-30T04:37:39;96947.72;;;12.50;99.96
14689;BME280;7432;48.728;9.154;2022-10-30T04:40:06;96956.44;;;12.49;99.48
14689;BME280;7432;48.728;9.154;2022-10-30T04:42:33;96958.88;;;12.51;99.61
14689;BME280;7432;48.728;9.154;2022-10-30T04:45:00;96958.56;;;12.45;99.95
14689;BME280;7432;48.728;9.154;2022-10-30T04:47:27;96956.59;;;12.39;100.00
14689;BME280;7432;48.728;9.154;2022-10-30T04:49:53;96964.19;;;12.41;100.00
14689;BME280;7432;48.728;9.154;2022-10-30T04:52:19;96958.19;;;12.32;100.00
14689;BME280;7432;48.728;9.154;2022-10-30T04:54:47;96953.19;;;12.31;100.00
14689;BME280;7432;48.728;9.154;2022-10-30T04:57:13;96957.72;;;12.29;100.00
14689;BME280;7432;48.728;9.154;2022-10-30T04:59:40;96958.84;;;12.26;100.00
14689;BME280;7432;48.728;9.154;2022-10-30T05:02:06;96957.03;;;12.27;100.00
14689;BME280;7432;48.728;9.154;2022-10-30T05:04:33;96948.16;;;12.21;100.00
14689;BME280;7432;48.728;9.154;2022-10-30T05:06:59;96954.94;;;12.22;100.00
14689;BME280;7432;48.728;9.154;2022-10-30T05:09:26;96946.56;;;12.20;100.00
14689;BME280;7432;48.728;9.154;2022-10-30T05:11:54;96947.69;;;12.18;100.00
14689;BME280;7432;48.728;9.154;2022-10-30T05:14:20;96949.78;;;12.14;100.00
14689;BME280;7432;48.728;9.154;2022-10-30T05:16:46;96949.94;;;12.13;100.00
14689;BME280;7432;48.728;9.154;2022-10-30T05:19:13;96949.13;;;12.04;100.00
14689;BME280;7432;48.728;9.154;2022-10-30T05:21:39;96944.75;;;12.05;100.00
14689;BME280;7432;48.728;9.154;2022-10-30T05:24:06;96940.38;;;11.97;100.00
14689;BME280;7432;48.728;9.154;2022-10-30T05:26:33;96948.75;;;11.91;100.00
14689;BME280;7432;48.728;9.154;2022-10-30T05:29:01;96951.47;;;11.89;100.00
14689;BME280;7432;48.728;9.154;2022-10-30T05:31:27;96936.16;;;11.88;100.00
14689;BME280;7432;48.728;9.154;2022-10-30T05:33:54;96943.75;;;11.89;100.00
14689;BME280;7432;48.728;9.154;2022-10-30T05:36:20;96937.13;;;11.87;100.00
14689;BME280;7432;48.728;9.154;2022-10-30T05:38:46;96947.44;;;11.87;100.00
14689;BME280;7432;48.728;9.154;2022-10-30T05:41:13;96944.53;;;11.82;100.00
14689;BME280;7432;48.728;9.154;2022-10-30T05:43:39;96945.66;;;11.79;100.00
14689;BME280;7432;48.728;9.154;2022-10-30T05:46:07;96949.81;;;11.80;100.00
14689;BME280;7432;48.728;9.154;2022-10-30T05:48:33;96944.53;;;11.82;100.00
14689;BME280;7432;48.728;9.154;2022-10-30T05:51:00;96936.25;;;11.70;100.00
14689;BME280;7432;48.728;9.154;2022-10-30T05:53:26;96949.03;;;11.80;100.00
14689;BME280;7432;48.728;9.154;2022-10-30T05:55:55;96945.75;;;11.70;100.00
14689;BME280;7432;48.728;9.154;2022-10-30T05:58:21;96946.03;;;11.67;100.00
14689;BME280;7432;48.728;9.154;2022-10-30T06:00:48;96950.78;;;11.71;100.00
14689;BME280;7432;48.728;9.154;2022-10-30T06:03:16;96950.25;;;11.68;100.00
14689;BME280;7432;48.728;9.154;2022-10-30T06:05:44;96948.47;;;11.68;100.00
14689;BME280;7432;48.728;9.154;2022-10-30T06:08:11;96946.75;;;11.69;100.00
14689;BME280;7432;48.728;9.154;2022-10-30T06:10:40;96958.16;;;11.66;100.00
14689;BME280;7432;48.728;9.154;2022-10-30T06:13:06;96952.56;;;11.71;100.00
14689;BME280;7432;48.728;9.154;2022-10-30T06:15:33;96958.53;;;11.71;100.00
14689;BME280;7432;48.728;9.154;2022-10-30T06:17:59;96954.91;;;11.64;100.00
14689;BME280;7432;48.728;9.154;2022-10-30T06:20:28;96954.59;;;11.67;100.00
14689;BME280;7432;48.728;9.154;2022-10-30T06:22:56;96953.78;;;11.67;100.00
14689;BME280;7432;48.728;9.154;2022-10-30T06:25:23;96952.56;;;11.71;100.00
14689;BME280;7432;48.728;9.154;2022-10-30T06:27:50;96958.88;;;11.76;100.00
14689;BME280;7432;48.728;9.154;2022-10-30T06:30:17;96959.81;;;11.75;100.00
14689;BME280;7432;48.728;9.154;2022-10-30T06:32:44;96968.41;;;11.84;100.00
14689;BME280;7432;48.728;9.154;2022-10-30T06:35:11;96962.63;;;11.90;100.00
14689;BME280;7432;48.728;9.154;2022-10-30T06:37:44;96949.41;;;12.01;99.81
14689;BME280;7432;48.728;9.154;2022-10-30T06:40:10;96950.88;;;12.04;99.70
14689;BME280;7432;48.728;9.154;2022-10-30T06:42:41;96961.41;;;12.18;98.78
14689;BME280;7432;48.728;9.154;2022-10-30T06:45:09;96960.13;;;12.30;98.73
14689;BME280;7432;48.728;9.154;2022-10-30T06:47:35;96960.00;;;12.40;97.98
14689;BME280;7432;48.728;9.154;2022-10-30T06:50:02;96936.41;;;12.35;97.49
14689;BME280;7432;48.728;9.154;2022-10-30T06:52:28;96961.28;;;12.60;97.35
14689;BME280;7432;48.728;9.154;2022-10-30T06:54:56;96962.09;;;12.69;96.87
14689;BME280;7432;48.728;9.154;2022-10-30T06:57:23;96961.13;;;12.78;96.39
14689;BME280;7432;48.728;9.154;2022-10-30T06:59:49;96961.28;;;12.92;95.88
14689;BME280;7432;48.728;9.154;2022-10-30T07:02:15;96958.22;;;13.05;95.51
14689;BME280;7432;48.728;9.154;2022-10-30T07:04:42;96967.44;;;13.16;95.23
14689;BME280;7432;48.728;9.154;2022-10-30T07:07:09;96964.63;;;13.33;94.39
14689;BME280;7432;48.728;9.154;2022-10-30T07:09:36;96964.28;;;13.44;94.59
14689;BME280;7432;48.728;9.154;2022-10-30T07:12:05;96956.66;;;13.59;94.07
14689;BME280;7432;48.728;9.154;2022-10-30T07:14:31;96957.56;;;13.74;93.11
14689;BME280;7432;48.728;9.154;2022-10-30T07:16:57;96969.63;;;13.90;92.40
14689;BME280;7432;48.728;9.154;2022-10-30T07:19:24;96961.16;;;14.04;92.61
14689;BME280;7432;48.728;9.154;2022-10-30T07:21:50;96960.25;;;14.19;92.03
14689;BME280;7432;48.728;9.154;2022-10-30T07:24:17;96965.84;;;14.39;91.00
14689;BME280;7432;48.728;9.154;2022-10-30T07:26:43;96972.75;;;14.69;89.69
14689;BME280;7432;48.728;9.154;2022-10-30T07:29:11;96974.19;;;15.09;87.25
14689;BME280;7432;48.728;9.154;2022-10-30T07:31:37;96972.22;;;15.49;85.42
14689;BME280;7432;48.728;9.154;2022-10-30T07:34:04;96966.78;;;16.09;82.22
14689;BME280;7432;48.728;9.154;2022-10-30T07:36:30;96994.94;;;16.55;80.79
14689;BME280;7432;48.728;9.154;2022-10-30T07:38:56;96968.94;;;16.77;77.22
14689;BME280;7432;48.728;9.154;2022-10-30T07:41:23;96973.81;;;17.42;73.42
14689;BME280;7432;48.728;9.154;2022-10-30T07:43:49;96984.41;;;18.63;70.67
14689;BME280;7432;48.728;9.154;2022-10-30T07:46:17;96983.19;;;19.83;67.73
14689;BME280;7432;48.728;9.154;2022-10-30T07:48:43;96984.22;;;21.45;61.02
14689;BME280;7432;48.728;9.154;2022-10-30T07:51:10;96985.75;;;23.26;57.03
14689;BME280;7432;48.728;9.154;2022-10-30T07:53:39;96986.25;;;24.89;52.16
14689;BME280;7432;48.728;9.154;2022-10-30T07:56:06;96998.91;;;26.57;47.03
14689;BME280;7432;48.728;9.154;2022-10-30T07:58:32;96993.56;;;28.31;43.66
14689;BME280;7432;48.728;9.154;2022-10-30T08:00:59;96990.00;;;28.72;41.55
14689;BME280;7432;48.728;9.154;2022-10-30T08:03:28;97005.72;;;30.44;39.04
14689;BME280;7432;48.728;9.154;2022-10-30T08:05:55;97001.97;;;31.66;37.67
14689;BME280;7432;48.728;9.154;2022-10-30T08:08:22;97009.63;;;32.44;35.45
14689;BME280;7432;48.728;9.154;2022-10-30T08:10:48;97009.44;;;32.97;34.36
14689;BME280;7432;48.728;9.154;2022-10-30T08:13:15;97011.81;;;33.49;33.56
14689;BME280;7432;48.728;9.154;2022-10-30T08:15:42;97008.75;;;34.02;32.86
14689;BME280;7432;48.728;9.154;2022-10-30T08:18:08;97005.47;;;33.91;31.70
14689;BME280;7432;48.728;9.154;2022-10-30T08:20:36;97014.59;;;34.44;30.80
14689;BME280;7432;48.728;9.154;2022-10-30T08:23:03;97017.06;;;34.90;31.55
14689;BME280;7432;48.728;9.154;2022-10-30T08:25:29;97017.56;;;34.92;30.92
14689;BME280;7432;48.728;9.154;2022-10-30T08:27:57;97013.03;;;34.79;28.52
14689;BME280;7432;48.728;9.154;2022-10-30T08:30:25;97014.19;;;34.65;28.90
14689;BME280;7432;48.728;9.154;2022-10-30T08:32:55;97013.03;;;35.37;28.43
14689;BME280;7432;48.728;9.154;2022-10-30T08:35:22;97006.97;;;33.51;29.23
14689;BME280;7432;48.728;9.154;2022-10-30T08:37:53;96994.91;;;31.52;31.73
14689;BME280;7432;48.728;9.154;2022-10-30T08:40:20;96988.94;;;28.01;36.79
14689;BME280;7432;48.728;9.154;2022-10-30T08:42:50;96989.38;;;25.91;40.50
14689;BME280;7432;48.728;9.154;2022-10-30T08:45:16;96980.72;;;23.83;45.28
14689;BME280;7432;48.728;9.154;2022-10-30T08:47:43;96974.31;;;22.97;47.19
14689;BME280;7432;48.728;9.154;2022-10-30T08:50:09;96975.75;;;22.52;48.91
14689;BME280;7432;48.728;9.154;2022-10-30T08:52:35;96975.38;;;21.82;51.28
14689;BME280;7432;48.728;9.154;2022-10-30T08:55:04;96979.47;;;21.60;51.92
14689;BME280;7432;48.728;9.154;2022-10-30T08:57:34;96979.13;;;21.07;54.19
14689;BME280;7432;48.728;9.154;2022-10-30T09:00:00;96972.44;;;20.80;57.01
14689;BME280;7432;48.728;9.154;2022-10-30T09:02:27;96972.94;;;20.71;55.88
14689;BME280;7432;48.728;9.154;2022-10-30T09:04:53;96971.66;;;20.48;55.67
14689;BME280;7432;48.728;9.154;2022-10-30T09:07:20;96973.81;;;20.14;56.57
14689;BME280;7432;48.728;9.154;2022-10-30T09:09:46;96971.03;;;20.02;57.82
14689;BME280;7432;48.728;9.154;2022-10-30T09:12:14;96977.91;;;19.90;57.76
14689;BME280;7432;48.728;9.154;2022-10-30T09:14:41;96979.75;;;19.83;58.53
14689;BME280;7432;48.728;9.154;2022-10-30T09:17:07;96974.75;;;19.75;58.30
14689;BME280;7432;48.728;9.154;2022-10-30T09:19:33;96977.97;;;19.70;59.09
14689;BME280;7432;48.728;9.154;2022-10-30T09:22:00;96973.56;;;19.58;59.71
14689;BME280;7432;48.728;9.154;2022-10-30T09:24:26;96972.78;;;19.57;60.25
14689;BME280;7432;48.728;9.154;2022-10-30T09:26:53;96977.19;;;19.57;60.37
14689;BME280;7432;48.728;9.154;2022-10-30T09:29:21;96938.03;;;19.30;60.64
14689;BME280;7432;48.728;9.154;2022-10-30T09:31:48;96982.41;;;19.57;61.17
14689;BME280;7432;48.728;9.154;2022-10-30T09:34:14;96986.44;;;19.59;61.92
14689;BME280;7432;48.728;9.154;2022-10-30T09:36:40;96979.59;;;19.65;62.23
14689;BME280;7432;48.728;9.154;2022-10-30T09:39:08;96982.81;;;19.67;62.99
14689;BME280;7432;48.728;9.154;2022-10-30T09:41:50;96982.81;;;19.67;62.27
14689;BME280;7432;48.728;9.154;2022-10-30T09:44:30;96966.94;;;19.62;60.66
14689;BME280;7432;48.728;9.154;2022-10-30T09:47:09;96975.97;;;19.59;60.58
14689;BME280;7432;48.728;9.154;2022-10-30T09:49:52;96986.25;;;19.61;60.83
14689;BME280;7432;48.728;9.154;2022-10-30T09:52:27;96985.03;;;19.63;61.31
14689;BME280;7432;48.728;9.154;2022-10-30T09:55:18;96990.25;;;19.63;62.22
14689;BME280;7432;48.728;9.154;2022-10-30T09:57:53;96989.22;;;19.71;63.15
14689;BME280;7432;48.728;9.154;2022-10-30T10:00:29;96986.19;;;19.74;63.01
14689;BME280;7432;48.728;9.154;2022-10-30T10:03:11;96979.78;;;19.70;63.02
14689;BME280;7432;48.728;9.154;2022-10-30T10:05:47;96988.41;;;19.77;61.76
14689;BME280;7432;48.728;9.154;2022-10-30T10:08:18;96986.59;;;19.77;62.12
14689;BME280;7432;48.728;9.154;2022-10-30T10:10:50;96984.41;;;19.74;62.99
14689;BME280;7432;48.728;9.154;2022-10-30T10:13:28;96984.00;;;19.77;62.39
14689;BME280;7432;48.728;9.154;2022-10-30T10:15:58;96980.34;;;19.78;62.59
14689;BME280;7432;48.728;9.154;2022-10-30T10:18:31;96978.72;;;19.84;63.20
14689;BME280;7432;48.728;9.154;2022-10-30T10:21:02;96983.94;;;19.97;63.36
14689;BME280;7432;48.728;9.154;2022-10-30T10:23:34;96979.88;;;20.01;63.37
14689;BME280;7432;48.728;9.154;2022-10-30T10:26:11;96984.47;;;20.05;63.84
14689;BME280;7432;48.728;9.154;2022-10-30T10:28:51;96975.22;;;20.09;64.64
14689;BME280;7432;48.728;9.154;2022-10-30T10:31:32;96981.66;;;20.14;63.45
14689;BME280;7432;48.728;9.154;2022-10-30T10:34:17;96975.97;;;20.23;62.98
14689;BME280;7432;48.728;9.154;2022-10-30T10:36:52;96976.78;;;20.24;63.98
14689;BME280;7432;48.728;9.154;2022-10-30T10:39:33;96976.97;;;20.29;63.29
14689;BME280;7432;48.728;9.154;2022-10-30T10:42:11;96976.56;;;20.32;64.38
14689;BME280;7432;48.728;9.154;2022-10-30T10:44:47;96973.31;;;20.36;64.83
14689;BME280;7432;48.728;9.154;2022-10-30T10:47:34;96976.09;;;20.41;64.03
14689;BME280;7432;48.728;9.154;2022-10-30T10:50:12;96972.56;;;20.60;62.78
14689;BME280;7432;48.728;9.154;2022-10-30T10:52:45;96965.06;;;20.71;63.42
14689;BME280;7432;48.728;9.154;2022-10-30T10:55:15;96969.44;;;20.77;63.04
14689;BME280;7432;48.728;9.154;2022-10-30T10:57:43;96971.59;;;20.86;61.92
14689;BME280;7432;48.728;9.154;2022-10-30T11:00:13;96961.25;;;20.98;60.91
14689;BME280;7432;48.728;9.154;2022-10-30T11:02:46;96965.03;;;21.02;60.63
14689;BME280;7432;48.728;9.154;2022-10-30T11:05:18;96964.41;;;21.06;60.42
14689;BME280;7432;48.728;9.154;2022-10-30T11:07:47;96957.75;;;21.10;61.79
14689;BME280;7432;48.728;9.154;2022-10-30T11:10:16;96962.56;;;21.13;60.74
14689;BME280;7432;48.728;9.154;2022-10-30T11:12:42;96958.69;;;21.16;59.16
14689;BME280;7432;48.728;9.154;2022-10-30T11:15:19;96953.84;;;21.19;59.63
14689;BME280;7432;48.728;9.154;2022-10-30T11:17:53;96955.69;;;21.12;60.09
14689;BME280;7432;48.728;9.154;2022-10-30T11:20:28;96954.47;;;21.15;59.92
14689;BME280;7432;48.728;9.154;2022-10-30T11:22:56;96955.28;;;21.15;61.33
14689;BME280;7432;48.728;9.154;2022-10-30T11:25:24;96948.59;;;21.19;63.67
14689;BME280;7432;48.728;9.154;2022-10-30T11:27:54;96950.84;;;21.16;63.51
14689;BME280;7432;48.728;9.154;2022-10-30T11:30:22;96947.84;;;21.12;62.43
14689;BME280;7432;48.728;9.154;2022-10-30T11:32:50;96951.91;;;21.08;62.27
14689;BME280;7432;48.728;9.154;2022-10-30T11:35:18;96948.66;;;21.13;61.29
14689;BME280;7432;48.728;9.154;2022-10-30T11:37:46;96953.22;;;21.17;61.40
14689;BME280;7432;48.728;9.154;2022-10-30T11:40:16;96950.56;;;21.24;61.12
14689;BME280;7432;48.728;9.154;2022-10-30T11:42:45;96945.84;;;21.33;61.25
14689;BME280;7432;48.728;9.154;2022-10-30T11:45:14;96949.47;;;21.32;61.65
14689;BME280;7432;48.728;9.154;2022-10-30T11:47:42;96946.09;;;21.31;62.19
14689;BME280;7432;48.728;9.154;2022-10-30T11:50:17;96951.13;;;21.26;62.01
14689;BME280;7432;48.728;9.154;2022-10-30T11:52:45;96949.84;;;21.17;63.51
14689;BME280;7432;48.728;9.154;2022-10-30T11:55:15;96945.81;;;21.14;61.88
14689;BME280;7432;48.728;9.154;2022-10-30T11:57:44;96945.06;;;21.07;62.29
14689;BME280;7432;48.728;9.154;2022-10-30T12:00:16;96944.44;;;21.12;62.52
14689;BME280;7432;48.728;9.154;2022-10-30T12:02:45;96926.97;;;20.99;62.89
14689;BME280;7432;48.728;9.154;2022-10-30T12:05:34;96939.41;;;21.10;63.06
14689;BME280;7432;48.728;9.154;2022-10-30T12:08:19;96936.94;;;21.15;65.51
14689;BME280;7432;48.728;9.154;2022-10-30T12:10:54;96923.03;;;21.15;66.83
14689;BME280;7432;48.728;9.154;2022-10-30T12:13:22;96944.31;;;21.25;66.89
14689;BME280;7432;48.728;9.154;2022-10-30T12:16:03;96934.56;;;21.32;66.77
14689;BME280;7432;48.728;9.154;2022-10-30T12:18:31;96934.06;;;21.42;65.30
14689;BME280;7432;48.728;9.154;2022-10-30T12:21:00;96933.94;;;21.55;64.68
14689;BME280;7432;48.728;9.154;2022-10-30T12:23:28;96930.94;;;21.69;63.85
14689;BME280;7432;48.728;9.154;2022-10-30T12:25:57;96926.81;;;21.80;63.80
14689;BME280;7432;48.728;9.154;2022-10-30T12:28:25;96934.75;;;21.92;63.64
14689;BME280;7432;48.728;9.154;2022-10-30T12:30:54;96926.00;;;21.98;63.01
14689;BME280;7432;48.728;9.154;2022-10-30T12:33:24;96924.13;;;22.05;63.33
14689;BME280;7432;48.728;9.154;2022-10-30T12:35:55;96923.81;;;22.13;63.57
14689;BME280;7432;48.728;9.154;2022-10-30T12:38:26;96922.56;;;22.15;62.51
14689;BME280;7432;48.728;9.154;2022-10-30T12:41:01;96918.09;;;22.16;61.83
14689;BME280;7432;48.728;9.154;2022-10-30T12:43:32;96918.88;;;22.16;62.08
14689;BME280;7432;48.728;9.154;2022-10-30T12:46:06;96914.19;;;22.07;62.68
14689;BME280;7432;48.728;9.154;2022-10-30T12:48:46;96918.63;;;22.06;63.57
14689;BME280;7432;48.728;9.154;2022-10-30T12:51:21;96906.69;;;21.92;64.58
14689;BME280;7432;48.728;9.154;2022-10-30T12:53:55;96915.00;;;21.89;64.95
14689;BME280;7432;48.728;9.154;2022-10-30T12:56:28;96906.34;;;21.89;63.11
14689;BME280;7432;48.728;9.154;2022-10-30T12:59:02;96914.81;;;21.91;62.60
14689;BME280;7432;48.728;9.154;2022-10-30T13:01:43;96906.25;;;21.95;63.70
14689;BME280;7432;48.728;9.154;2022-10-30T13:04:16;96899.88;;;21.91;64.00
14689;BME280;7432;48.728;9.154;2022-10-30T13:06:48;96894.66;;;21.84;64.69
14689;BME280;7432;48.728;9.154;2022-10-30T13:09:20;96897.97;;;21.80;64.76
14689;BME280;7432;48.728;9.154;2022-10-30T13:11:52;96894.97;;;21.76;65.32
14689;BME280;7432;48.728;9.154;2022-10-30T13:14:35;96890.72;;;21.75;65.66
14689;BME280;7432;48.728;9.154;2022-10-30T13:17:09;96895.16;;;21.75;66.69
14689;BME280;7432;48.728;9.154;2022-10-30T13:19:36;96894.84;;;21.71;66.97
14689;BME280;7432;48.728;9.154;2022-10-30T13:22:05;96892.06;;;21.66;66.72
14689;BME280;7432;48.728;9.154;2022-10-30T13:24:45;96895.69;;;21.65;66.12